Time;durP1;ratioP1;P1;durP2;ratioP2;P2;SDS_P1;SDS_P2;PMS_P1;PMS_P2;Temp;Humidity;BMP_temperature;BMP_pressure;BME280_temperature;BME280_humidity;BME280_pressure;Samples;Min_cycle;Max_cycle;Signal;HPM_P1;HPM_P2
2021/12/10 00:02:31;;;;;;;31.55;15.20;;;;;;;;;;5065015;28;20675;-70
2021/12/10 00:04:57;;;;;;;35.55;13.98;;;;;;;;;;5065147;28;20403;-69
2021/12/10 00:07:25;;;;;;;30.05;14.07;;;;;;;;;;5065550;28;20135;-70
2021/12/10 00:09:53;;;;;;;35.63;14.32;;;;;;;;;;5064189;28;20098;-70
2021/12/10 00:12:22;;;;;;;31.52;14.07;;;;;;;;;;5063599;28;20119;-69
2021/12/10 00:14:48;;;;;;;32.45;15.05;;;;;;;;;;5065009;28;20082;-68
2021/12/10 00:17:15;;;;;;;34.83;14.30;;;;;;;;;;5064677;28;20079;-69
2021/12/10 00:19:46;;;;;;;31.98;13.95;;;;;;;;;;5064634;28;20056;-68
2021/12/10 00:22:18;;;;;;;29.98;13.07;;;;;;;;;;5065028;28;20070;-69
2021/12/10 00:24:45;;;;;;;33.25;13.68;;;;;;;;;;5064818;28;20131;-68
2021/12/10 00:27:12;;;;;;;28.60;12.63;;;;;;;;;;5064224;28;20053;-69
2021/12/10 00:29:42;;;;;;;32.50;13.07;;;;;;;;;;5064095;28;20283;-69
2021/12/10 00:32:17;;;;;;;33.35;13.23;;;;;;;;;;5065203;28;20052;-69
2021/12/10 00:34:46;;;;;;;31.77;13.48;;;;;;;;;;5068605;28;20060;-69
2021/12/10 00:37:14;;;;;;;41.65;15.10;;;;;;;;;;5068349;28;20044;-69
2021/12/10 00:39:42;;;;;;;35.63;14.07;;;;;;;;;;5069311;28;20070;-69
2021/12/10 00:42:10;;;;;;;32.28;13.75;;;;;;;;;;5067861;28;20283;-69
2021/12/10 00:44:36;;;;;;;35.40;13.07;;;;;;;;;;5068381;28;20040;-69
2021/12/10 00:47:03;;;;;;;35.08;13.30;;;;;;;;;;5068512;28;20051;-70
2021/12/10 00:49:29;;;;;;;31.27;12.63;;;;;;;;;;5068919;28;20037;-70
2021/12/10 00:51:56;;;;;;;29.60;13.32;;;;;;;;;;5066684;28;20678;-70
2021/12/10 00:54:22;;;;;;;31.95;13.07;;;;;;;;;;5068662;28;20517;-70
2021/12/10 00:56:48;;;;;;;36.13;13.43;;;;;;;;;;5068157;28;20049;-69
2021/12/10 00:59:15;;;;;;;32.03;12.88;;;;;;;;;;5068396;28;20051;-69
2021/12/10 01:01:42;;;;;;;29.80;12.95;;;;;;;;;;5068104;28;20036;-69
2021/12/10 01:04:10;;;;;;;37.47;13.38;;;;;;;;;;5068283;28;20047;-70
2021/12/10 01:06:38;;;;;;;33.08;13.55;;;;;;;;;;5068680;28;20048;-70
2021/12/10 01:09:09;;;;;;;24.80;11.50;;;;;;;;;;5067697;28;20079;-70
2021/12/10 01:11:37;;;;;;;29.00;13.00;;;;;;;;;;5067637;28;20055;-70
2021/12/10 01:14:14;;;;;;;21.98;11.68;;;;;;;;;;5067867;28;20520;-70
2021/12/10 01:27:33;;;;;;;20.40;10.32;;;;;;;;;;5068127;28;20036;-68
2021/12/10 01:30:01;;;;;;;21.23;10.20;;;;;;;;;;5067645;28;20053;-69
2021/12/10 01:32:29;;;;;;;25.80;10.63;;;;;;;;;;5068080;28;20127;-70
2021/12/10 01:34:55;;;;;;;23.27;10.50;;;;;;;;;;5067951;28;20217;-70
2021/12/10 01:37:22;;;;;;;25.98;11.30;;;;;;;;;;5068176;28;20045;-70
2021/12/10 01:39:48;;;;;;;23.80;10.52;;;;;;;;;;5067481;28;20407;-69
2021/12/10 01:42:20;;;;;;;24.42;10.23;;;;;;;;;;5067498;28;20041;-69
2021/12/10 01:44:51;;;;;;;23.92;9.95;;;;;;;;;;5067308;28;20040;-69
2021/12/10 01:47:20;;;;;;;23.15;9.93;;;;;;;;;;5068101;28;20102;-70
2021/12/10 01:49:46;;;;;;;28.40;10.07;;;;;;;;;;5066874;28;20033;-69
2021/12/10 01:52:13;;;;;;;25.35;9.63;;;;;;;;;;5065771;28;20546;-69
2021/12/10 01:54:41;;;;;;;19.10;9.57;;;;;;;;;;5067118;28;20452;-69
2021/12/10 01:57:09;;;;;;;33.90;9.65;;;;;;;;;;5066162;28;20037;-70
2021/12/10 01:59:37;;;;;;;21.38;10.05;;;;;;;;;;5066077;28;20406;-68
2021/12/10 02:02:08;;;;;;;18.20;9.95;;;;;;;;;;5067254;28;20067;-68
2021/12/10 02:04:35;;;;;;;22.38;9.65;;;;;;;;;;5065810;28;20413;-68
2021/12/10 02:07:01;;;;;;;31.27;10.07;;;;;;;;;;5066861;28;20131;-68
2021/12/10 02:09:28;;;;;;;24.20;10.43;;;;;;;;;;5067181;28;20148;-68
2021/12/10 02:11:54;;;;;;;23.45;10.35;;;;;;;;;;5066508;28;20094;-68
2021/12/10 02:14:21;;;;;;;25.50;10.45;;;;;;;;;;5067535;28;20028;-68
2021/12/10 02:16:48;;;;;;;32.97;10.70;;;;;;;;;;5065818;28;20056;-68
2021/12/10 02:19:16;;;;;;;20.65;9.88;;;;;;;;;;5067121;28;20082;-68
2021/12/10 02:21:42;;;;;;;20.48;9.57;;;;;;;;;;5067131;28;20044;-68
2021/12/10 02:24:09;;;;;;;25.15;10.75;;;;;;;;;;5066376;28;20044;-68
2021/12/10 02:26:38;;;;;;;24.73;11.23;;;;;;;;;;5066163;28;20128;-69
2021/12/10 02:29:04;;;;;;;;;;;;;;;;;;5067106;28;20056;-70
2021/12/10 02:31:30;;;;;;;27.45;10.52;;;;;;;;;;5066314;28;19920;-69
2021/12/10 02:33:57;;;;;;;31.23;11.05;;;;;;;;;;5066494;28;20044;-69
2021/12/10 02:36:25;;;;;;;24.63;10.50;;;;;;;;;;5066942;28;20474;-70
2021/12/10 02:38:52;;;;;;;21.98;10.35;;;;;;;;;;5066124;28;20041;-70
2021/12/10 02:41:20;;;;;;;19.38;10.05;;;;;;;;;;5066223;28;20508;-69
2021/12/10 02:43:46;;;;;;;23.73;10.35;;;;;;;;;;5066964;28;20036;-68
2021/12/10 02:46:13;;;;;;;21.83;9.40;;;;;;;;;;5065724;28;20326;-68
2021/12/10 02:48:40;;;;;;;24.30;10.60;;;;;;;;;;5066856;28;20497;-68
2021/12/10 02:51:07;;;;;;;24.98;10.85;;;;;;;;;;5066298;28;20055;-69
2021/12/10 02:53:38;;;;;;;21.65;10.13;;;;;;;;;;5065358;28;20121;-69
2021/12/10 02:56:04;;;;;;;26.90;10.43;;;;;;;;;;5065375;28;20521;-69
2021/12/10 02:58:31;;;;;;;25.95;9.82;;;;;;;;;;5065065;28;20128;-69
2021/12/10 03:01:01;;;;;;;20.95;9.20;;;;;;;;;;5066150;28;20086;-69
2021/12/10 03:03:27;;;;;;;20.48;9.40;;;;;;;;;;5066419;28;20044;-69
2021/12/10 03:05:53;;;;;;;18.83;9.70;;;;;;;;;;5065721;28;20072;-69
2021/12/10 03:08:20;;;;;;;24.35;9.38;;;;;;;;;;5066388;28;20054;-69
2021/12/10 03:10:46;;;;;;;21.10;9.75;;;;;;;;;;5064011;28;20092;-69
2021/12/10 03:13:13;;;;;;;22.70;10.50;;;;;;;;;;5065808;28;20573;-69
2021/12/10 03:15:39;;;;;;;17.17;9.55;;;;;;;;;;5065982;28;20056;-68
2021/12/10 03:18:07;;;;;;;24.00;10.02;;;;;;;;;;5065209;28;20405;-69
2021/12/10 03:20:33;;;;;;;20.90;9.60;;;;;;;;;;5066144;28;20677;-69
2021/12/10 03:23:00;;;;;;;20.98;10.65;;;;;;;;;;5065640;28;20127;-70
2021/12/10 03:25:27;;;;;;;23.50;10.52;;;;;;;;;;5064617;28;20045;-70
2021/12/10 03:27:53;;;;;;;25.40;11.30;;;;;;;;;;5065859;28;20509;-70
2021/12/10 03:30:22;;;;;;;27.00;13.05;;;;;;;;;;5066474;28;20468;-70
2021/12/10 03:32:48;;;;;;;28.42;12.23;;;;;;;;;;5064262;28;20045;-69
2021/12/10 03:35:19;;;;;;;20.38;10.70;;;;;;;;;;5065569;28;20040;-69
2021/12/10 03:37:46;;;;;;;25.90;11.73;;;;;;;;;;5065625;28;20132;-69
2021/12/10 03:40:13;;;;;;;25.88;12.85;;;;;;;;;;5064540;28;20072;-69
2021/12/10 03:42:40;;;;;;;24.08;10.95;;;;;;;;;;5065386;28;20044;-69
2021/12/10 03:45:07;;;;;;;23.23;10.65;;;;;;;;;;5065376;28;20044;-69
2021/12/10 03:47:34;;;;;;;24.00;10.90;;;;;;;;;;5063934;28;20047;-70
2021/12/10 03:50:00;;;;;;;24.70;12.38;;;;;;;;;;5063871;28;20387;-70
2021/12/10 03:52:26;;;;;;;26.52;10.70;;;;;;;;;;5065331;28;20090;-69
2021/12/10 03:54:54;;;;;;;26.65;12.13;;;;;;;;;;5064365;28;20044;-70
2021/12/10 03:57:21;;;;;;;27.13;11.53;;;;;;;;;;5065853;28;20048;-69
2021/12/10 03:59:47;;;;;;;17.38;10.15;;;;;;;;;;5066098;28;20777;-69
2021/12/10 04:02:13;;;;;;;29.25;12.73;;;;;;;;;;5065356;28;20482;-69
2021/12/10 04:04:43;;;;;;;26.35;11.60;;;;;;;;;;5064925;28;20040;-69
2021/12/10 04:07:11;;;;;;;23.02;11.65;;;;;;;;;;5063667;28;20068;-68
2021/12/10 04:09:37;;;;;;;25.27;11.27;;;;;;;;;;5062853;28;20076;-68
2021/12/10 04:12:04;;;;;;;23.52;13.00;;;;;;;;;;5063691;28;20128;-68
2021/12/10 04:14:31;;;;;;;25.90;11.73;;;;;;;;;;5065437;28;20102;-69
2021/12/10 04:16:57;;;;;;;24.45;11.90;;;;;;;;;;5065074;28;20054;-69
2021/12/10 04:19:25;;;;;;;25.45;11.52;;;;;;;;;;5065199;28;20098;-69
2021/12/10 04:21:52;;;;;;;24.27;12.77;;;;;;;;;;5065205;28;20047;-74
2021/12/10 04:24:19;;;;;;;27.35;12.38;;;;;;;;;;5064575;28;20040;-69
2021/12/10 04:26:47;;;;;;;25.35;12.88;;;;;;;;;;5065054;28;20052;-69
2021/12/10 04:29:13;;;;;;;28.98;13.05;;;;;;;;;;5065109;28;20071;-70
2021/12/10 04:31:39;;;;;;;23.58;12.25;;;;;;;;;;5063856;28;20097;-69
2021/12/10 04:34:06;;;;;;;24.08;11.30;;;;;;;;;;5064944;28;20040;-69
2021/12/10 04:36:32;;;;;;;23.33;11.82;;;;;;;;;;5065126;28;20037;-69
2021/12/10 04:38:59;;;;;;;30.13;12.52;;;;;;;;;;5065073;28;20048;-69
2021/12/10 04:41:25;;;;;;;27.25;12.10;;;;;;;;;;5064547;28;20044;-69
2021/12/10 04:43:51;;;;;;;22.33;11.57;;;;;;;;;;5063360;28;20049;-70
2021/12/10 04:46:18;;;;;;;23.60;12.45;;;;;;;;;;5064250;28;20257;-69
2021/12/10 04:48:46;;;;;;;24.80;11.85;;;;;;;;;;5063668;28;20086;-69
2021/12/10 04:51:12;;;;;;;26.23;12.20;;;;;;;;;;5064091;28;20048;-70
2021/12/10 04:53:39;;;;;;;22.10;11.98;;;;;;;;;;5063832;28;20143;-69
2021/12/10 04:56:05;;;;;;;24.42;10.70;;;;;;;;;;5063876;28;20044;-69
2021/12/10 04:58:32;;;;;;;23.95;11.38;;;;;;;;;;5064656;28;20076;-69
2021/12/10 05:01:01;;;;;;;26.40;12.02;;;;;;;;;;5064624;28;20125;-69
2021/12/10 05:03:27;;;;;;;25.80;11.80;;;;;;;;;;5063755;28;20109;-69
2021/12/10 05:05:59;;;;;;;25.45;11.98;;;;;;;;;;5064142;28;20105;-70
2021/12/10 05:08:26;;;;;;;19.33;11.40;;;;;;;;;;5064565;28;20418;-70
2021/12/10 05:10:52;;;;;;;25.25;10.50;;;;;;;;;;5062606;28;20569;-70
2021/12/10 05:13:18;;;;;;;26.73;12.57;;;;;;;;;;5064685;28;20136;-70
2021/12/10 05:15:44;;;;;;;26.52;12.15;;;;;;;;;;5064417;28;20131;-69
2021/12/10 05:18:13;;;;;;;25.65;12.13;;;;;;;;;;5064480;28;20276;-69
2021/12/10 05:20:41;;;;;;;23.85;11.88;;;;;;;;;;5064866;28;20058;-69
2021/12/10 05:23:07;;;;;;;25.60;11.40;;;;;;;;;;5068151;28;20082;-70
2021/12/10 05:25:34;;;;;;;23.63;11.98;;;;;;;;;;5067351;28;20044;-69
2021/12/10 05:28:00;;;;;;;24.00;12.32;;;;;;;;;;5066400;28;20493;-69
2021/12/10 05:30:28;;;;;;;23.30;11.70;;;;;;;;;;5068112;28;20045;-69
2021/12/10 05:32:54;;;;;;;28.60;12.18;;;;;;;;;;5066344;28;20086;-69
2021/12/10 05:35:21;;;;;;;25.67;12.20;;;;;;;;;;5068290;28;20462;-69
2021/12/10 05:37:47;;;;;;;27.98;13.48;;;;;;;;;;5066778;28;20059;-69
2021/12/10 05:40:15;;;;;;;23.08;11.40;;;;;;;;;;5067099;28;20044;-75
2021/12/10 05:42:42;;;;;;;23.25;11.75;;;;;;;;;;5067775;28;20163;-75
2021/12/10 05:45:08;;;;;;;23.65;12.35;;;;;;;;;;5067260;28;20045;-75
2021/12/10 05:47:35;;;;;;;21.25;10.93;;;;;;;;;;5067560;28;20033;-74
2021/12/10 05:50:01;;;;;;;25.30;12.63;;;;;;;;;;5066368;28;20049;-74
2021/12/10 05:52:27;;;;;;;23.20;11.30;;;;;;;;;;5067401;28;20559;-74
2021/12/10 05:54:53;;;;;;;23.70;11.73;;;;;;;;;;5066672;28;20043;-75
2021/12/10 05:57:20;;;;;;;22.25;11.45;;;;;;;;;;5067636;28;20044;-75
2021/12/10 05:59:46;;;;;;;22.00;11.32;;;;;;;;;;5067337;28;20550;-74
2021/12/10 06:02:13;;;;;;;18.13;9.75;;;;;;;;;;5065976;28;20056;-75
2021/12/10 06:04:39;;;;;;;16.40;9.55;;;;;;;;;;5067427;28;20041;-74
2021/12/10 06:07:06;;;;;;;18.80;9.70;;;;;;;;;;5067127;28;20135;-73
2021/12/10 06:09:32;;;;;;;19.90;10.40;;;;;;;;;;5066055;28;20052;-75
2021/12/10 06:11:59;;;;;;;19.90;9.20;;;;;;;;;;5067020;28;20068;-74
2021/12/10 06:14:25;;;;;;;16.55;9.40;;;;;;;;;;5067063;28;20048;-78
2021/12/10 06:16:54;;;;;;;18.05;9.27;;;;;;;;;;5065247;28;20041;-72
2021/12/10 06:19:20;;;;;;;17.65;9.50;;;;;;;;;;5066420;28;20095;-72
2021/12/10 06:21:47;;;;;;;16.55;8.93;;;;;;;;;;5066517;28;20041;-72
2021/12/10 06:24:13;;;;;;;19.63;9.70;;;;;;;;;;5065587;28;20078;-72
2021/12/10 06:26:39;;;;;;;19.30;10.15;;;;;;;;;;5066802;28;20144;-74
2021/12/10 06:29:06;;;;;;;16.98;8.30;;;;;;;;;;5065369;28;20051;-74
2021/12/10 06:31:32;;;;;;;20.77;9.52;;;;;;;;;;5061871;28;20036;-73
2021/12/10 06:33:59;;;;;;;25.42;10.48;;;;;;;;;;5058174;28;20094;-73
2021/12/10 06:36:25;;;;;;;17.73;8.35;;;;;;;;;;5053207;28;20398;-73
2021/12/10 06:38:52;;;;;;;17.42;9.23;;;;;;;;;;5048530;28;20048;-72
2021/12/10 06:41:18;;;;;;;16.58;8.68;;;;;;;;;;5054880;28;20117;-73
2021/12/10 06:43:45;;;;;;;17.58;8.77;;;;;;;;;;5056442;28;20095;-73
2021/12/10 06:46:12;;;;;;;14.98;8.10;;;;;;;;;;5060714;28;20092;-73
2021/12/10 06:48:38;;;;;;;20.80;8.95;;;;;;;;;;5049185;28;20179;-73
2021/12/10 06:51:09;;;;;;;17.23;7.85;;;;;;;;;;5053998;28;20060;-72
2021/12/10 06:53:36;;;;;;;18.27;8.48;;;;;;;;;;5065181;28;20049;-73
2021/12/10 06:56:04;;;;;;;17.50;7.63;;;;;;;;;;5065136;28;20055;-72
2021/12/10 06:58:32;;;;;;;16.83;7.70;;;;;;;;;;5061687;28;20048;-68
2021/12/10 07:01:01;;;;;;;20.38;8.20;;;;;;;;;;5065353;28;20460;-69
2021/12/10 07:03:28;;;;;;;26.02;8.10;;;;;;;;;;5065696;28;20037;-70
2021/12/10 07:05:55;;;;;;;15.18;8.43;;;;;;;;;;5065078;28;20040;-71
2021/12/10 07:08:22;;;;;;;13.82;8.10;;;;;;;;;;5064340;28;20127;-71
2021/12/10 07:10:49;;;;;;;16.25;8.15;;;;;;;;;;5064928;28;20056;-70
2021/12/10 07:13:15;;;;;;;18.77;8.98;;;;;;;;;;5064731;28;20571;-69
2021/12/10 07:15:43;;;;;;;18.48;7.80;;;;;;;;;;5062345;28;20048;-68
2021/12/10 07:18:10;;;;;;;15.82;7.25;;;;;;;;;;5062806;28;20033;-69
2021/12/10 07:20:37;;;;;;;16.30;8.20;;;;;;;;;;5065279;28;20541;-71
2021/12/10 07:23:03;;;;;;;15.98;7.97;;;;;;;;;;5064935;28;20033;-69
2021/12/10 07:25:29;;;;;;;15.13;7.82;;;;;;;;;;5064875;28;20051;-69
2021/12/10 07:27:56;;;;;;;15.10;7.60;;;;;;;;;;5064725;28;20044;-68
2021/12/10 07:30:24;;;;;;;16.63;7.80;;;;;;;;;;5064631;28;20044;-69
2021/12/10 07:32:50;;;;;;;14.05;7.18;;;;;;;;;;5061446;28;20045;-69
2021/12/10 07:35:17;;;;;;;14.75;7.55;;;;;;;;;;5061510;28;20079;-68
2021/12/10 07:37:44;;;;;;;18.55;7.43;;;;;;;;;;5064655;28;20060;-68
2021/12/10 07:40:12;;;;;;;15.95;7.82;;;;;;;;;;5064012;28;20036;-69
2021/12/10 07:42:38;;;;;;;14.98;7.45;;;;;;;;;;5064248;28;20040;-69
2021/12/10 07:45:06;;;;;;;14.88;6.78;;;;;;;;;;5064776;28;20600;-68
2021/12/10 07:47:35;;;;;;;12.75;6.47;;;;;;;;;;5057439;28;20059;-71
2021/12/10 07:50:03;;;;;;;12.30;6.18;;;;;;;;;;5063811;28;20040;-71
2021/12/10 07:52:33;;;;;;;17.38;6.60;;;;;;;;;;5064600;28;20090;-70
2021/12/10 07:55:00;;;;;;;11.35;6.25;;;;;;;;;;5061865;28;20036;-70
2021/12/10 07:57:27;;;;;;;15.40;6.65;;;;;;;;;;5064928;28;20055;-66
2021/12/10 07:59:53;;;;;;;14.93;6.88;;;;;;;;;;5063847;28;20041;-68
2021/12/10 08:02:19;;;;;;;12.27;6.72;;;;;;;;;;5063823;28;20723;-66
2021/12/10 08:04:46;;;;;;;16.95;6.80;;;;;;;;;;5065027;28;20504;-68
2021/12/10 08:07:13;;;;;;;12.15;6.50;;;;;;;;;;5064115;28;20055;-68
2021/12/10 08:09:40;;;;;;;13.93;6.63;;;;;;;;;;5063215;28;20048;-68
2021/12/10 08:12:06;;;;;;;17.90;6.78;;;;;;;;;;5064462;28;20210;-68
2021/12/10 08:14:33;;;;;;;13.15;6.55;;;;;;;;;;5064862;28;20427;-68
2021/12/10 08:16:59;;;;;;;15.55;6.13;;;;;;;;;;5064281;28;20514;-68
2021/12/10 08:19:25;;;;;;;14.90;5.72;;;;;;;;;;5064299;28;20086;-68
2021/12/10 08:21:51;;;;;;;14.23;7.10;;;;;;;;;;5063891;28;20098;-68
2021/12/10 08:24:18;;;;;;;19.08;6.47;;;;;;;;;;5062928;28;20056;-73
2021/12/10 08:26:44;;;;;;;13.95;6.05;;;;;;;;;;5064425;28;20486;-78
2021/12/10 08:29:11;;;;;;;12.75;5.80;;;;;;;;;;5062647;28;20037;-79
2021/12/10 08:31:38;;;;;;;13.75;6.60;;;;;;;;;;5064356;28;20098;-78
2021/12/10 08:34:04;;;;;;;14.05;5.40;;;;;;;;;;5064128;28;20044;-78
2021/12/10 08:36:33;;;;;;;11.85;6.05;;;;;;;;;;5064350;28;20059;-73
2021/12/10 08:38:59;;;;;;;11.98;5.90;;;;;;;;;;5063060;28;20044;-73
2021/12/10 08:41:27;;;;;;;9.50;5.40;;;;;;;;;;5064144;28;20371;-73
2021/12/10 08:43:56;;;;;;;13.88;5.90;;;;;;;;;;5063729;28;20036;-73
2021/12/10 08:46:22;;;;;;;;;;;;;;;;;;5063096;28;20052;-78
2021/12/10 08:48:48;;;;;;;15.85;5.65;;;;;;;;;;5064196;28;20023;-75
2021/12/10 08:51:16;;;;;;;11.70;5.03;;;;;;;;;;5062815;28;20128;-75
2021/12/10 08:53:42;;;;;;;13.17;5.80;;;;;;;;;;5060646;28;20040;-75
2021/12/10 08:56:09;;;;;;;12.57;6.10;;;;;;;;;;5066684;28;20342;-75
2021/12/10 08:58:35;;;;;;;17.10;6.57;;;;;;;;;;5067837;28;20046;-74
2021/12/10 09:01:05;;;;;;;12.65;5.35;;;;;;;;;;5067447;28;20040;-69
2021/12/10 09:03:32;;;;;;;10.05;5.57;;;;;;;;;;5067939;28;20040;-69
2021/12/10 09:05:59;;;;;;;16.40;5.95;;;;;;;;;;5067730;28;20094;-69
2021/12/10 09:08:25;;;;;;;10.57;5.30;;;;;;;;;;5066209;28;20048;-69
2021/12/10 09:10:52;;;;;;;11.32;4.97;;;;;;;;;;5067405;28;20105;-69
2021/12/10 09:13:20;;;;;;;10.80;6.05;;;;;;;;;;5068354;28;20083;-68
2021/12/10 09:15:51;;;;;;;11.43;4.78;;;;;;;;;;5064154;28;20047;-69
2021/12/10 09:18:17;;;;;;;14.13;5.13;;;;;;;;;;5067846;28;20198;-68
2021/12/10 09:20:48;;;;;;;11.68;5.57;;;;;;;;;;5064178;28;20047;-69
2021/12/10 09:23:16;;;;;;;12.48;5.35;;;;;;;;;;5063461;28;20075;-70
2021/12/10 09:25:42;;;;;;;11.85;5.78;;;;;;;;;;5063912;28;20076;-69
2021/12/10 09:28:09;;;;;;;12.55;5.25;;;;;;;;;;5063297;28;20048;-70
2021/12/10 09:30:38;;;;;;;10.15;4.78;;;;;;;;;;5062708;28;20045;-69
2021/12/10 09:33:04;;;;;;;9.65;4.80;;;;;;;;;;5062270;28;20132;-69
2021/12/10 09:35:34;;;;;;;10.73;5.10;;;;;;;;;;5057857;28;20044;-68
2021/12/10 09:38:00;;;;;;;11.63;5.25;;;;;;;;;;5061902;28;20052;-69
2021/12/10 09:40:30;;;;;;;12.68;4.97;;;;;;;;;;5063843;28;20048;-70
2021/12/10 09:42:56;;;;;;;13.23;5.05;;;;;;;;;;5064173;28;20185;-69
2021/12/10 09:45:24;;;;;;;12.55;5.65;;;;;;;;;;5062574;28;20378;-69
2021/12/10 09:47:50;;;;;;;16.98;4.80;;;;;;;;;;5065093;28;20037;-69
2021/12/10 09:50:17;;;;;;;11.93;5.15;;;;;;;;;;5064051;28;20052;-69
2021/12/10 09:52:44;;;;;;;11.68;4.55;;;;;;;;;;5064377;28;20159;-69
2021/12/10 09:55:12;;;;;;;12.73;5.35;;;;;;;;;;5062369;28;20047;-69
2021/12/10 09:57:39;;;;;;;14.02;5.55;;;;;;;;;;5062918;28;20135;-70
2021/12/10 10:00:09;;;;;;;9.75;4.63;;;;;;;;;;5064185;28;20480;-69
2021/12/10 10:02:36;;;;;;;10.80;4.85;;;;;;;;;;5061757;28;20044;-69
2021/12/10 10:05:04;;;;;;;9.30;4.93;;;;;;;;;;5045519;28;20044;-70
2021/12/10 10:07:30;;;;;;;12.13;4.65;;;;;;;;;;5062230;28;20088;-70
2021/12/10 10:09:58;;;;;;;11.35;4.72;;;;;;;;;;5060117;28;20091;-70
2021/12/10 10:12:28;;;;;;;13.55;4.25;;;;;;;;;;5063524;28;20047;-69
2021/12/10 10:14:54;;;;;;;7.38;4.47;;;;;;;;;;5062285;28;20066;-71
2021/12/10 10:17:22;;;;;;;11.73;5.10;;;;;;;;;;5063797;28;20094;-73
2021/12/10 10:19:49;;;;;;;12.38;4.88;;;;;;;;;;5062776;28;20627;-69
2021/12/10 10:22:18;;;;;;;10.88;5.05;;;;;;;;;;5061026;28;20036;-69
2021/12/10 10:24:44;;;;;;;10.75;4.18;;;;;;;;;;5062757;28;20406;-69
2021/12/10 10:27:13;;;;;;;10.48;4.57;;;;;;;;;;5063187;28;20047;-70
2021/12/10 10:29:39;;;;;;;;;;;;;;;;;;5062214;28;20044;-70
2021/12/10 10:32:10;;;;;;;12.32;4.28;;;;;;;;;;5062834;28;19995;-70
2021/12/10 10:34:38;;;;;;;9.88;4.18;;;;;;;;;;5063789;28;20076;-70
2021/12/10 10:37:04;;;;;;;11.55;4.82;;;;;;;;;;5063328;28;20185;-70
2021/12/10 10:39:33;;;;;;;11.80;4.68;;;;;;;;;;5062884;28;20048;-70
2021/12/10 10:42:00;;;;;;;10.88;4.38;;;;;;;;;;5063509;28;20049;-70
2021/12/10 10:44:26;;;;;;;7.13;3.92;;;;;;;;;;5062858;28;20040;-70
2021/12/10 10:46:55;;;;;;;8.10;4.35;;;;;;;;;;5062804;28;20529;-70
2021/12/10 10:49:32;;;;;;;12.25;4.50;;;;;;;;;;5063226;28;20041;-71
2021/12/10 10:51:58;;;;;;;13.18;4.70;;;;;;;;;;5063093;28;20048;-70
2021/12/10 10:54:30;;;;;;;8.55;4.88;;;;;;;;;;5062597;28;20391;-70
2021/12/10 10:56:57;;;;;;;12.30;4.30;;;;;;;;;;5062503;28;20087;-69
2021/12/10 10:59:26;;;;;;;9.45;4.15;;;;;;;;;;5063156;28;20044;-70
2021/12/10 11:02:00;;;;;;;13.52;3.80;;;;;;;;;;5063357;28;20110;-70
2021/12/10 11:04:28;;;;;;;6.95;3.67;;;;;;;;;;5063201;28;20143;-70
2021/12/10 11:06:57;;;;;;;8.38;4.35;;;;;;;;;;5060158;28;20079;-69
2021/12/10 11:09:27;;;;;;;12.18;4.47;;;;;;;;;;5061679;28;20478;-70
2021/12/10 11:11:56;;;;;;;8.00;3.58;;;;;;;;;;5062273;28;20587;-70
2021/12/10 11:14:24;;;;;;;8.65;3.88;;;;;;;;;;5062729;28;20051;-71
2021/12/10 11:16:52;;;;;;;9.40;4.50;;;;;;;;;;5062230;28;20048;-70
2021/12/10 11:19:21;;;;;;;8.33;3.47;;;;;;;;;;5062922;28;20044;-70
2021/12/10 11:21:54;;;;;;;8.18;3.42;;;;;;;;;;5063750;28;20614;-69
2021/12/10 11:24:23;;;;;;;7.85;3.30;;;;;;;;;;5062438;28;20075;-70
2021/12/10 11:26:52;;;;;;;10.95;3.80;;;;;;;;;;5062784;28;20059;-70
2021/12/10 11:29:27;;;;;;;7.55;3.40;;;;;;;;;;5062838;28;20037;-70
2021/12/10 11:31:58;;;;;;;10.20;3.78;;;;;;;;;;5062376;28;20144;-70
2021/12/10 11:34:39;;;;;;;8.40;3.58;;;;;;;;;;5060419;28;20048;-69
2021/12/10 11:37:05;;;;;;;10.18;3.17;;;;;;;;;;5061953;28;20055;-70
2021/12/10 11:39:41;;;;;;;7.57;3.33;;;;;;;;;;5061460;28;20119;-70
2021/12/10 11:42:26;;;;;;;9.45;3.08;;;;;;;;;;5069546;28;20105;-70
2021/12/10 11:45:17;;;;;;;8.38;3.25;;;;;;;;;;5061592;28;20074;-71
2021/12/10 11:47:42;;;;;;;6.72;3.53;;;;;;;;;;5059407;28;20104;-73
2021/12/10 11:50:18;;;;;;;8.32;2.55;;;;;;;;;;5060791;28;20480;-70
2021/12/10 11:52:44;;;;;;;9.07;3.10;;;;;;;;;;5062565;28;20040;-70
2021/12/10 11:55:10;;;;;;;6.53;2.92;;;;;;;;;;5059562;28;20494;-70
2021/12/10 11:57:39;;;;;;;7.65;2.58;;;;;;;;;;5056420;28;20098;-70
2021/12/10 12:00:14;;;;;;;6.70;2.53;;;;;;;;;;5061995;28;20777;-68
2021/12/10 12:02:49;;;;;;;7.93;3.00;;;;;;;;;;5059642;28;20037;-70
2021/12/10 12:05:17;;;;;;;7.55;2.95;;;;;;;;;;5060363;28;20135;-71
2021/12/10 12:07:45;;;;;;;9.57;2.92;;;;;;;;;;5062465;28;20382;-70
2021/12/10 12:10:12;;;;;;;6.10;2.33;;;;;;;;;;5061622;28;20046;-70
2021/12/10 12:12:40;;;;;;;6.95;2.88;;;;;;;;;;5058861;28;20745;-70
2021/12/10 12:15:12;;;;;;;7.50;3.50;;;;;;;;;;5060351;28;20037;-69
2021/12/10 12:17:42;;;;;;;10.73;3.40;;;;;;;;;;5060818;28;20055;-70
2021/12/10 12:20:32;;;;;;;4.90;2.30;;;;;;;;;;5061666;28;20048;-70
2021/12/10 12:25:45;;;;;;;10.13;2.78;;;;;;;;;;5062163;28;20044;-70
2021/12/10 12:28:13;;;;;;;6.80;2.60;;;;;;;;;;5062153;28;20054;-71
2021/12/10 12:30:53;;;;;;;7.85;2.90;;;;;;;;;;5064138;28;20056;-70
2021/12/10 12:33:19;;;;;;;8.32;2.90;;;;;;;;;;5064863;28;20040;-70
2021/12/10 12:35:46;;;;;;;7.35;2.20;;;;;;;;;;5063868;28;20062;-70
2021/12/10 12:38:15;;;;;;;10.02;2.53;;;;;;;;;;5061344;28;20049;-71
2021/12/10 12:40:43;;;;;;;9.32;2.80;;;;;;;;;;5062598;28;20051;-72
2021/12/10 12:43:10;;;;;;;4.30;2.10;;;;;;;;;;5068146;28;20510;-71
2021/12/10 12:45:38;;;;;;;5.57;2.25;;;;;;;;;;5066557;28;20032;-69
2021/12/10 12:48:09;;;;;;;11.35;2.65;;;;;;;;;;5067679;28;20053;-70
2021/12/10 12:50:36;;;;;;;8.05;2.50;;;;;;;;;;5068091;28;20040;-70
2021/12/10 12:53:17;;;;;;;6.03;2.58;;;;;;;;;;5067309;28;20119;-70
2021/12/10 12:55:47;;;;;;;5.30;2.08;;;;;;;;;;5066285;28;20036;-71
2021/12/10 12:58:20;;;;;;;5.97;2.35;;;;;;;;;;5065191;28;20341;-70
2021/12/10 13:00:46;;;;;;;10.82;2.30;;;;;;;;;;5065000;28;20037;-70
2021/12/10 13:03:16;;;;;;;14.38;2.70;;;;;;;;;;5067759;28;20047;-70
2021/12/10 13:05:47;;;;;;;8.75;2.28;;;;;;;;;;5067337;28;20084;-70
2021/12/10 13:08:16;;;;;;;8.57;2.33;;;;;;;;;;5066694;28;20075;-70
2021/12/10 13:10:49;;;;;;;7.68;2.10;;;;;;;;;;5067810;28;20056;-71
2021/12/10 13:13:24;;;;;;;6.18;2.15;;;;;;;;;;5065998;28;20048;-70
2021/12/10 13:15:51;;;;;;;9.30;3.45;;;;;;;;;;5066461;28;20041;-70
2021/12/10 13:18:19;;;;;;;5.85;2.60;;;;;;;;;;5066378;28;20040;-71
2021/12/10 13:20:49;;;;;;;6.03;2.25;;;;;;;;;;5067445;28;20048;-71
2021/12/10 13:23:17;;;;;;;8.18;2.40;;;;;;;;;;5066482;28;20120;-71
2021/12/10 13:25:44;;;;;;;10.82;2.92;;;;;;;;;;5067087;28;21799;-70
2021/12/10 13:28:11;;;;;;;5.97;2.50;;;;;;;;;;5066114;28;20041;-71
2021/12/10 13:30:42;;;;;;;8.50;2.25;;;;;;;;;;5067481;28;20044;-70
2021/12/10 13:33:09;;;;;;;5.88;2.38;;;;;;;;;;5066958;28;20409;-71
2021/12/10 13:35:35;;;;;;;10.63;2.55;;;;;;;;;;5067036;28;20416;-70
2021/12/10 13:38:02;;;;;;;6.93;2.25;;;;;;;;;;5066132;28;20048;-71
2021/12/10 13:40:31;;;;;;;10.65;2.88;;;;;;;;;;5065543;28;20186;-71
2021/12/10 13:43:02;;;;;;;7.13;2.67;;;;;;;;;;5066839;28;20048;-71
2021/12/10 13:45:28;;;;;;;13.20;3.22;;;;;;;;;;5065092;28;20091;-70
2021/12/10 13:48:04;;;;;;;10.18;3.00;;;;;;;;;;5065884;28;20131;-71
2021/12/10 13:50:35;;;;;;;6.47;2.97;;;;;;;;;;5063411;28;20045;-71
2021/12/10 13:53:04;;;;;;;4.45;2.38;;;;;;;;;;5062352;28;20486;-71
2021/12/10 13:55:30;;;;;;;;;;;;;;;;;;5067585;28;20089;-70
2021/12/10 13:58:14;;;;;;;6.00;2.80;;;;;;;;;;5066448;28;20006;-71
2021/12/10 14:00:43;;;;;;;6.30;2.60;;;;;;;;;;5066257;28;20036;-71
2021/12/10 14:03:09;;;;;;;;;;;;;;;;;;5066424;28;20036;-71
2021/12/10 14:05:37;;;;;;;7.78;2.60;;;;;;;;;;5066148;28;19943;-71
2021/12/10 14:08:09;;;;;;;4.65;2.60;;;;;;;;;;5065331;28;20436;-71
2021/12/10 14:10:40;;;;;;;9.27;2.42;;;;;;;;;;5065938;28;20048;-71
2021/12/10 14:13:07;;;;;;;7.80;2.70;;;;;;;;;;5065873;28;20041;-70
2021/12/10 14:15:46;;;;;;;10.55;2.53;;;;;;;;;;5064833;28;20041;-70
2021/12/10 14:18:16;;;;;;;12.15;3.00;;;;;;;;;;5066141;28;20138;-70
2021/12/10 14:20:45;;;;;;;7.68;2.60;;;;;;;;;;5065838;28;20052;-71
2021/12/10 14:23:13;;;;;;;;;;;;;;;;;;5065402;28;20079;-71
2021/12/10 14:25:45;;;;;;;6.53;2.67;;;;;;;;;;5064429;28;19982;-71
2021/12/10 14:28:14;;;;;;;10.25;2.95;;;;;;;;;;5063587;28;20044;-71
2021/12/10 14:30:43;;;;;;;11.50;2.60;;;;;;;;;;5064525;28;20207;-71
2021/12/10 14:33:17;;;;;;;6.50;2.78;;;;;;;;;;5064532;28;20111;-70
2021/12/10 14:35:47;;;;;;;6.88;3.40;;;;;;;;;;5064328;28;20044;-70
2021/12/10 14:38:13;;;;;;;6.03;2.22;;;;;;;;;;5064191;28;20095;-70
2021/12/10 14:40:48;;;;;;;10.20;2.72;;;;;;;;;;5065635;28;20037;-70
2021/12/10 14:43:18;;;;;;;5.28;2.53;;;;;;;;;;5064921;28;20133;-71
2021/12/10 14:45:55;;;;;;;7.82;2.85;;;;;;;;;;5065480;28;20090;-71
2021/12/10 14:48:22;;;;;;;7.88;2.92;;;;;;;;;;5063700;28;20047;-71
2021/12/10 14:50:58;;;;;;;5.70;2.72;;;;;;;;;;5064847;28;20060;-70